sensor_id;sensor_type;location;lat;lon;timestamp;P1;durP1;ratioP1;P2;durP2;ratioP2
11761;SDS011;5938;47.098;15.474;2023-06-26T00:02:49;15.03;;;13.53;;
11761;SDS011;5938;47.098;15.474;2023-06-26T00:06:53;15.43;;;13.83;;
11761;SDS011;5938;47.098;15.474;2023-06-26T00:10:58;14.07;;;12.57;;
11761;SDS011;5938;47.098;15.474;2023-06-26T00:15:02;13.90;;;12.10;;
11761;SDS011;5938;47.098;15.474;2023-06-26T00:19:07;15.10;;;13.60;;
11761;SDS011;5938;47.098;15.474;2023-06-26T00:23:13;15.33;;;13.77;;
11761;SDS011;5938;47.098;15.474;2023-06-26T00:27:20;17.37;;;14.47;;
11761;SDS011;5938;47.098;15.474;2023-06-26T00:31:23;15.27;;;13.47;;
11761;SDS011;5938;47.098;15.474;2023-06-26T00:35:29;15.57;;;13.10;;
11761;SDS011;5938;47.098;15.474;2023-06-26T00:39:32;16.10;;;13.33;;
11761;SDS011;5938;47.098;15.474;2023-06-26T00:43:36;16.13;;;13.00;;
11761;SDS011;5938;47.098;15.474;2023-06-26T00:47:40;14.97;;;13.50;;
11761;SDS011;5938;47.098;15.474;2023-06-26T00:51:45;16.47;;;14.17;;
11761;SDS011;5938;47.098;15.474;2023-06-26T00:55:49;14.13;;;12.60;;
11761;SDS011;5938;47.098;15.474;2023-06-26T00:59:52;16.83;;;14.00;;
11761;SDS011;5938;47.098;15.474;2023-06-26T01:03:56;16.83;;;15.13;;
11761;SDS011;5938;47.098;15.474;2023-06-26T01:08:03;15.30;;;13.70;;
11761;SDS011;5938;47.098;15.474;2023-06-26T01:12:07;15.40;;;13.90;;
11761;SDS011;5938;47.098;15.474;2023-06-26T01:16:12;14.53;;;12.97;;
11761;SDS011;5938;47.098;15.474;2023-06-26T01:20:20;16.50;;;13.50;;
11761;SDS011;5938;47.098;15.474;2023-06-26T01:24:27;15.53;;;13.83;;
11761;SDS011;5938;47.098;15.474;2023-06-26T01:28:41;15.13;;;13.37;;
11761;SDS011;5938;47.098;15.474;2023-06-26T01:32:45;15.20;;;13.57;;
11761;SDS011;5938;47.098;15.474;2023-06-26T01:36:51;15.30;;;13.73;;
11761;SDS011;5938;47.098;15.474;2023-06-26T01:40:54;16.40;;;14.77;;
11761;SDS011;5938;47.098;15.474;2023-06-26T01:44:59;14.33;;;12.93;;
11761;SDS011;5938;47.098;15.474;2023-06-26T01:49:09;18.33;;;13.83;;
11761;SDS011;5938;47.098;15.474;2023-06-26T01:53:21;16.77;;;13.60;;
11761;SDS011;5938;47.098;15.474;2023-06-26T01:57:28;14.17;;;12.67;;
11761;SDS011;5938;47.098;15.474;2023-06-26T02:01:35;16.43;;;14.10;;
11761;SDS011;5938;47.098;15.474;2023-06-26T02:05:40;14.90;;;13.13;;
11761;SDS011;5938;47.098;15.474;2023-06-26T02:09:44;16.60;;;14.60;;
11761;SDS011;5938;47.098;15.474;2023-06-26T02:13:48;19.10;;;13.10;;
11761;SDS011;5938;47.098;15.474;2023-06-26T02:17:53;18.33;;;14.13;;
11761;SDS011;5938;47.098;15.474;2023-06-26T02:21:56;15.13;;;13.63;;
11761;SDS011;5938;47.098;15.474;2023-06-26T02:25:59;15.27;;;13.30;;
11761;SDS011;5938;47.098;15.474;2023-06-26T02:30:04;16.43;;;14.73;;
11761;SDS011;5938;47.098;15.474;2023-06-26T02:34:10;17.60;;;14.87;;
11761;SDS011;5938;47.098;15.474;2023-06-26T02:38:14;15.73;;;14.00;;
11761;SDS011;5938;47.098;15.474;2023-06-26T02:42:17;16.13;;;14.53;;
11761;SDS011;5938;47.098;15.474;2023-06-26T02:46:21;13.60;;;12.30;;
11761;SDS011;5938;47.098;15.474;2023-06-26T02:50:26;15.50;;;13.80;;
11761;SDS011;5938;47.098;15.474;2023-06-26T02:54:29;15.23;;;13.00;;
11761;SDS011;5938;47.098;15.474;2023-06-26T02:58:34;14.40;;;12.40;;
11761;SDS011;5938;47.098;15.474;2023-06-26T03:02:37;18.70;;;14.17;;
11761;SDS011;5938;47.098;15.474;2023-06-26T03:06:43;15.87;;;14.30;;
11761;SDS011;5938;47.098;15.474;2023-06-26T03:10:47;16.43;;;14.73;;
11761;SDS011;5938;47.098;15.474;2023-06-26T03:14:50;17.80;;;14.87;;
11761;SDS011;5938;47.098;15.474;2023-06-26T03:18:54;15.10;;;13.63;;
11761;SDS011;5938;47.098;15.474;2023-06-26T03:22:59;15.90;;;14.30;;
11761;SDS011;5938;47.098;15.474;2023-06-26T03:27:03;16.60;;;14.87;;
11761;SDS011;5938;47.098;15.474;2023-06-26T03:31:06;16.67;;;14.10;;
11761;SDS011;5938;47.098;15.474;2023-06-26T03:35:10;16.00;;;14.30;;
11761;SDS011;5938;47.098;15.474;2023-06-26T03:39:15;16.90;;;14.03;;
11761;SDS011;5938;47.098;15.474;2023-06-26T03:43:19;14.83;;;13.33;;
11761;SDS011;5938;47.098;15.474;2023-06-26T03:47:22;17.53;;;15.67;;
11761;SDS011;5938;47.098;15.474;2023-06-26T03:51:26;16.17;;;14.47;;
11761;SDS011;5938;47.098;15.474;2023-06-26T03:55:31;18.10;;;15.13;;
11761;SDS011;5938;47.098;15.474;2023-06-26T03:59:37;15.53;;;14.03;;
11761;SDS011;5938;47.098;15.474;2023-06-26T04:03:40;15.90;;;14.10;;
11761;SDS011;5938;47.098;15.474;2023-06-26T04:07:44;14.87;;;13.20;;
11761;SDS011;5938;47.098;15.474;2023-06-26T04:11:49;18.30;;;14.00;;
11761;SDS011;5938;47.098;15.474;2023-06-26T04:15:53;16.10;;;14.40;;
11761;SDS011;5938;47.098;15.474;2023-06-26T04:19:57;17.27;;;15.47;;
11761;SDS011;5938;47.098;15.474;2023-06-26T04:24:00;17.47;;;14.70;;
11761;SDS011;5938;47.098;15.474;2023-06-26T04:28:05;17.90;;;14.70;;
11761;SDS011;5938;47.098;15.474;2023-06-26T04:32:09;14.33;;;12.83;;
11761;SDS011;5938;47.098;15.474;2023-06-26T04:36:13;15.73;;;14.13;;
11761;SDS011;5938;47.098;15.474;2023-06-26T04:40:18;18.37;;;13.80;;
11761;SDS011;5938;47.098;15.474;2023-06-26T04:44:22;17.27;;;14.57;;
11761;SDS011;5938;47.098;15.474;2023-06-26T04:48:26;17.07;;;15.27;;
11761;SDS011;5938;47.098;15.474;2023-06-26T04:52:32;16.23;;;14.63;;
11761;SDS011;5938;47.098;15.474;2023-06-26T04:56:35;16.50;;;14.40;;
11761;SDS011;5938;47.098;15.474;2023-06-26T05:00:43;16.40;;;14.10;;
11761;SDS011;5938;47.098;15.474;2023-06-26T05:04:46;16.40;;;14.70;;
11761;SDS011;5938;47.098;15.474;2023-06-26T05:08:50;17.27;;;15.20;;
11761;SDS011;5938;47.098;15.474;2023-06-26T05:12:54;15.63;;;14.13;;
11761;SDS011;5938;47.098;15.474;2023-06-26T05:16:59;15.80;;;14.03;;
11761;SDS011;5938;47.098;15.474;2023-06-26T05:21:03;16.77;;;13.60;;
11761;SDS011;5938;47.098;15.474;2023-06-26T05:25:08;16.53;;;13.77;;
11761;SDS011;5938;47.098;15.474;2023-06-26T05:29:13;17.03;;;14.03;;
11761;SDS011;5938;47.098;15.474;2023-06-26T05:33:21;14.50;;;13.20;;
11761;SDS011;5938;47.098;15.474;2023-06-26T05:37:27;15.07;;;13.47;;
11761;SDS011;5938;47.098;15.474;2023-06-26T05:41:32;15.57;;;14.03;;
11761;SDS011;5938;47.098;15.474;2023-06-26T05:45:37;17.37;;;15.57;;
11761;SDS011;5938;47.098;15.474;2023-06-26T05:49:43;16.83;;;15.23;;
11761;SDS011;5938;47.098;15.474;2023-06-26T05:53:46;14.20;;;12.83;;
11761;SDS011;5938;47.098;15.474;2023-06-26T05:57:50;15.60;;;14.20;;
11761;SDS011;5938;47.098;15.474;2023-06-26T06:01:55;14.10;;;12.70;;
11761;SDS011;5938;47.098;15.474;2023-06-26T06:06:00;16.80;;;13.50;;
11761;SDS011;5938;47.098;15.474;2023-06-26T06:10:05;14.37;;;12.90;;
11761;SDS011;5938;47.098;15.474;2023-06-26T06:14:09;15.13;;;13.63;;
11761;SDS011;5938;47.098;15.474;2023-06-26T06:18:12;14.30;;;12.53;;
11761;SDS011;5938;47.098;15.474;2023-06-26T06:22:18;15.60;;;14.00;;
11761;SDS011;5938;47.098;15.474;2023-06-26T06:26:21;15.40;;;13.50;;
11761;SDS011;5938;47.098;15.474;2023-06-26T06:30:25;12.90;;;11.70;;
11761;SDS011;5938;47.098;15.474;2023-06-26T06:34:44;13.53;;;11.97;;
11761;SDS011;5938;47.098;15.474;2023-06-26T06:38:49;14.80;;;13.40;;
11761;SDS011;5938;47.098;15.474;2023-06-26T06:42:54;13.77;;;12.57;;
11761;SDS011;5938;47.098;15.474;2023-06-26T06:47:01;14.37;;;12.50;;
11761;SDS011;5938;47.098;15.474;2023-06-26T06:51:04;13.77;;;12.40;;
11761;SDS011;5938;47.098;15.474;2023-06-26T06:55:12;15.47;;;12.70;;
11761;SDS011;5938;47.098;15.474;2023-06-26T06:59:15;12.83;;;11.53;;
11761;SDS011;5938;47.098;15.474;2023-06-26T07:03:19;12.73;;;11.50;;
11761;SDS011;5938;47.098;15.474;2023-06-26T07:07:25;13.53;;;12.17;;
11761;SDS011;5938;47.098;15.474;2023-06-26T07:11:35;14.40;;;12.40;;
11761;SDS011;5938;47.098;15.474;2023-06-26T07:15:39;13.60;;;12.30;;
11761;SDS011;5938;47.098;15.474;2023-06-26T07:19:42;15.20;;;12.30;;
11761;SDS011;5938;47.098;15.474;2023-06-26T07:23:46;16.00;;;12.70;;
11761;SDS011;5938;47.098;15.474;2023-06-26T07:27:51;14.47;;;12.97;;
11761;SDS011;5938;47.098;15.474;2023-06-26T07:31:55;13.13;;;11.90;;
11761;SDS011;5938;47.098;15.474;2023-06-26T07:35:58;12.87;;;11.67;;
11761;SDS011;5938;47.098;15.474;2023-06-26T07:40:03;12.53;;;11.23;;
11761;SDS011;5938;47.098;15.474;2023-06-26T07:44:09;12.23;;;11.03;;
11761;SDS011;5938;47.098;15.474;2023-06-26T07:48:13;11.90;;;10.70;;
11761;SDS011;5938;47.098;15.474;2023-06-26T07:52:18;10.93;;;9.93;;
11761;SDS011;5938;47.098;15.474;2023-06-26T07:56:21;10.80;;;9.80;;
11761;SDS011;5938;47.098;15.474;2023-06-26T08:00:39;10.77;;;9.87;;
11761;SDS011;5938;47.098;15.474;2023-06-26T08:04:46;11.90;;;10.70;;
11761;SDS011;5938;47.098;15.474;2023-06-26T08:08:50;11.60;;;10.20;;
11761;SDS011;5938;47.098;15.474;2023-06-26T08:12:55;14.37;;;12.80;;
11761;SDS011;5938;47.098;15.474;2023-06-26T08:17:00;11.33;;;10.23;;
11761;SDS011;5938;47.098;15.474;2023-06-26T08:21:03;11.57;;;10.57;;
11761;SDS011;5938;47.098;15.474;2023-06-26T08:25:08;12.43;;;11.30;;
11761;SDS011;5938;47.098;15.474;2023-06-26T08:29:12;11.53;;;10.33;;
11761;SDS011;5938;47.098;15.474;2023-06-26T08:33:18;12.73;;;10.60;;
11761;SDS011;5938;47.098;15.474;2023-06-26T08:37:22;11.50;;;10.37;;
11761;SDS011;5938;47.098;15.474;2023-06-26T08:41:25;10.67;;;9.77;;
11761;SDS011;5938;47.098;15.474;2023-06-26T08:45:30;11.50;;;10.50;;
11761;SDS011;5938;47.098;15.474;2023-06-26T08:49:37;11.10;;;10.13;;
11761;SDS011;5938;47.098;15.474;2023-06-26T08:53:50;10.47;;;9.67;;
11761;SDS011;5938;47.098;15.474;2023-06-26T08:58:00;9.93;;;9.13;;
11761;SDS011;5938;47.098;15.474;2023-06-26T09:02:04;10.20;;;9.33;;
11761;SDS011;5938;47.098;15.474;2023-06-26T09:06:10;9.63;;;8.93;;
11761;SDS011;5938;47.098;15.474;2023-06-26T09:10:14;10.37;;;9.57;;
11761;SDS011;5938;47.098;15.474;2023-06-26T09:14:18;8.60;;;7.90;;
11761;SDS011;5938;47.098;15.474;2023-06-26T09:18:22;10.03;;;9.20;;
11761;SDS011;5938;47.098;15.474;2023-06-26T09:22:28;8.40;;;7.77;;
11761;SDS011;5938;47.098;15.474;2023-06-26T09:26:31;8.80;;;8.07;;
11761;SDS011;5938;47.098;15.474;2023-06-26T09:30:35;7.80;;;7.17;;
11761;SDS011;5938;47.098;15.474;2023-06-26T09:34:41;8.30;;;7.70;;
11761;SDS011;5938;47.098;15.474;2023-06-26T09:38:46;8.40;;;7.80;;
11761;SDS011;5938;47.098;15.474;2023-06-26T09:42:50;8.00;;;7.40;;
11761;SDS011;5938;47.098;15.474;2023-06-26T09:46:54;6.70;;;6.20;;
11761;SDS011;5938;47.098;15.474;2023-06-26T09:50:58;7.80;;;7.10;;
11761;SDS011;5938;47.098;15.474;2023-06-26T09:55:15;7.77;;;7.17;;
11761;SDS011;5938;47.098;15.474;2023-06-26T09:59:22;6.27;;;5.87;;
11761;SDS011;5938;47.098;15.474;2023-06-26T10:03:26;7.63;;;7.00;;
11761;SDS011;5938;47.098;15.474;2023-06-26T10:07:30;7.47;;;6.97;;
11761;SDS011;5938;47.098;15.474;2023-06-26T10:11:37;6.30;;;5.90;;
11761;SDS011;5938;47.098;15.474;2023-06-26T10:15:44;7.37;;;6.77;;
11761;SDS011;5938;47.098;15.474;2023-06-26T10:19:49;6.60;;;6.10;;
11761;SDS011;5938;47.098;15.474;2023-06-26T10:23:56;6.73;;;6.23;;
11761;SDS011;5938;47.098;15.474;2023-06-26T10:28:02;6.47;;;5.87;;
11761;SDS011;5938;47.098;15.474;2023-06-26T10:32:06;8.00;;;7.40;;
11761;SDS011;5938;47.098;15.474;2023-06-26T10:36:14;6.17;;;5.70;;
11761;SDS011;5938;47.098;15.474;2023-06-26T10:40:25;6.10;;;5.70;;
11761;SDS011;5938;47.098;15.474;2023-06-26T10:44:31;5.97;;;5.57;;
11761;SDS011;5938;47.098;15.474;2023-06-26T10:48:55;5.90;;;5.40;;
11761;SDS011;5938;47.098;15.474;2023-06-26T10:53:08;5.47;;;5.07;;
11761;SDS011;5938;47.098;15.474;2023-06-26T10:57:13;5.90;;;5.50;;
11761;SDS011;5938;47.098;15.474;2023-06-26T11:01:28;7.47;;;6.93;;
11761;SDS011;5938;47.098;15.474;2023-06-26T11:05:32;6.70;;;6.17;;
11761;SDS011;5938;47.098;15.474;2023-06-26T11:09:37;5.90;;;5.40;;
11761;SDS011;5938;47.098;15.474;2023-06-26T11:14:00;7.63;;;5.90;;
11761;SDS011;5938;47.098;15.474;2023-06-26T11:18:06;6.47;;;5.97;;
11761;SDS011;5938;47.098;15.474;2023-06-26T11:22:12;6.60;;;6.10;;
11761;SDS011;5938;47.098;15.474;2023-06-26T11:26:16;6.37;;;5.87;;
11761;SDS011;5938;47.098;15.474;2023-06-26T11:30:23;8.30;;;7.60;;
11761;SDS011;5938;47.098;15.474;2023-06-26T11:38:54;8.50;;;7.80;;
11761;SDS011;5938;47.098;15.474;2023-06-26T11:42:58;8.17;;;7.57;;
11761;SDS011;5938;47.098;15.474;2023-06-26T11:47:03;8.43;;;7.73;;
11761;SDS011;5938;47.098;15.474;2023-06-26T11:51:12;9.00;;;8.20;;
11761;SDS011;5938;47.098;15.474;2023-06-26T11:55:16;7.73;;;7.13;;
11761;SDS011;5938;47.098;15.474;2023-06-26T11:59:20;7.00;;;6.50;;
11761;SDS011;5938;47.098;15.474;2023-06-26T12:03:24;7.83;;;7.23;;
11761;SDS011;5938;47.098;15.474;2023-06-26T12:07:30;8.73;;;8.13;;
11761;SDS011;5938;47.098;15.474;2023-06-26T12:11:34;8.97;;;8.27;;
11761;SDS011;5938;47.098;15.474;2023-06-26T12:15:39;8.83;;;8.13;;
11761;SDS011;5938;47.098;15.474;2023-06-26T12:19:44;8.77;;;8.10;;
11761;SDS011;5938;47.098;15.474;2023-06-26T12:23:57;8.93;;;8.23;;
11761;SDS011;5938;47.098;15.474;2023-06-26T12:28:14;8.97;;;8.27;;
11761;SDS011;5938;47.098;15.474;2023-06-26T12:32:20;8.37;;;7.77;;
11761;SDS011;5938;47.098;15.474;2023-06-26T12:36:26;8.97;;;7.40;;
11761;SDS011;5938;47.098;15.474;2023-06-26T12:40:31;7.67;;;7.17;;
11761;SDS011;5938;47.098;15.474;2023-06-26T12:44:36;8.87;;;8.27;;
11761;SDS011;5938;47.098;15.474;2023-06-26T12:48:40;7.83;;;7.33;;
11761;SDS011;5938;47.098;15.474;2023-06-26T12:52:48;7.27;;;6.63;;
11761;SDS011;5938;47.098;15.474;2023-06-26T12:56:53;8.20;;;7.60;;
11761;SDS011;5938;47.098;15.474;2023-06-26T13:00:56;7.57;;;6.97;;
11761;SDS011;5938;47.098;15.474;2023-06-26T13:05:00;7.70;;;7.10;;
11761;SDS011;5938;47.098;15.474;2023-06-26T13:09:05;8.50;;;7.80;;
11761;SDS011;5938;47.098;15.474;2023-06-26T13:13:10;7.37;;;6.87;;
11761;SDS011;5938;47.098;15.474;2023-06-26T13:17:14;7.80;;;7.20;;
11761;SDS011;5938;47.098;15.474;2023-06-26T13:21:17;7.10;;;6.60;;
11761;SDS011;5938;47.098;15.474;2023-06-26T13:25:21;7.10;;;6.50;;
11761;SDS011;5938;47.098;15.474;2023-06-26T13:29:26;7.43;;;6.93;;
11761;SDS011;5938;47.098;15.474;2023-06-26T13:33:31;7.40;;;6.70;;
11761;SDS011;5938;47.098;15.474;2023-06-26T13:37:34;6.80;;;6.40;;
11761;SDS011;5938;47.098;15.474;2023-06-26T13:41:39;6.70;;;6.30;;
11761;SDS011;5938;47.098;15.474;2023-06-26T13:45:44;7.20;;;6.60;;
11761;SDS011;5938;47.098;15.474;2023-06-26T13:49:48;6.80;;;6.40;;
11761;SDS011;5938;47.098;15.474;2023-06-26T13:53:51;7.07;;;6.57;;
11761;SDS011;5938;47.098;15.474;2023-06-26T13:57:56;7.50;;;6.90;;
11761;SDS011;5938;47.098;15.474;2023-06-26T14:02:01;8.03;;;6.67;;
11761;SDS011;5938;47.098;15.474;2023-06-26T14:06:07;7.00;;;6.50;;
11761;SDS011;5938;47.098;15.474;2023-06-26T14:10:10;7.00;;;6.60;;
11761;SDS011;5938;47.098;15.474;2023-06-26T14:14:14;6.83;;;6.33;;
11761;SDS011;5938;47.098;15.474;2023-06-26T14:18:19;6.10;;;5.70;;
11761;SDS011;5938;47.098;15.474;2023-06-26T14:22:25;7.93;;;7.37;;
11761;SDS011;5938;47.098;15.474;2023-06-26T14:26:30;6.80;;;6.40;;
11761;SDS011;5938;47.098;15.474;2023-06-26T14:30:35;6.60;;;6.20;;
11761;SDS011;5938;47.098;15.474;2023-06-26T14:34:41;7.73;;;7.23;;
11761;SDS011;5938;47.098;15.474;2023-06-26T14:38:44;7.60;;;7.10;;
11761;SDS011;5938;47.098;15.474;2023-06-26T14:42:49;7.60;;;7.10;;
11761;SDS011;5938;47.098;15.474;2023-06-26T14:46:55;8.10;;;7.50;;
11761;SDS011;5938;47.098;15.474;2023-06-26T14:51:00;7.60;;;7.10;;
11761;SDS011;5938;47.098;15.474;2023-06-26T14:55:04;6.77;;;6.33;;
11761;SDS011;5938;47.098;15.474;2023-06-26T14:59:08;6.90;;;6.50;;
11761;SDS011;5938;47.098;15.474;2023-06-26T15:03:13;7.20;;;6.77;;
11761;SDS011;5938;47.098;15.474;2023-06-26T15:07:19;7.23;;;6.73;;
11761;SDS011;5938;47.098;15.474;2023-06-26T15:11:23;7.40;;;6.90;;
11761;SDS011;5938;47.098;15.474;2023-06-26T15:15:30;7.60;;;7.10;;
11761;SDS011;5938;47.098;15.474;2023-06-26T15:19:35;7.53;;;6.97;;
11761;SDS011;5938;47.098;15.474;2023-06-26T15:23:41;8.13;;;7.53;;
11761;SDS011;5938;47.098;15.474;2023-06-26T15:27:44;7.60;;;7.10;;
11761;SDS011;5938;47.098;15.474;2023-06-26T15:31:48;8.47;;;7.77;;
11761;SDS011;5938;47.098;15.474;2023-06-26T15:35:52;7.70;;;7.20;;
11761;SDS011;5938;47.098;15.474;2023-06-26T15:39:57;8.07;;;7.47;;
11761;SDS011;5938;47.098;15.474;2023-06-26T15:44:01;7.87;;;7.30;;
11761;SDS011;5938;47.098;15.474;2023-06-26T15:48:05;8.23;;;7.73;;
11761;SDS011;5938;47.098;15.474;2023-06-26T15:52:08;7.97;;;7.40;;
11761;SDS011;5938;47.098;15.474;2023-06-26T15:56:13;7.13;;;6.73;;
11761;SDS011;5938;47.098;15.474;2023-06-26T16:00:19;8.60;;;7.00;;
11761;SDS011;5938;47.098;15.474;2023-06-26T16:04:22;7.40;;;6.80;;
11761;SDS011;5938;47.098;15.474;2023-06-26T16:08:27;7.97;;;7.37;;
11761;SDS011;5938;47.098;15.474;2023-06-26T16:12:31;7.70;;;7.10;;
11761;SDS011;5938;47.098;15.474;2023-06-26T16:16:35;8.63;;;7.83;;
11761;SDS011;5938;47.098;15.474;2023-06-26T16:20:39;9.10;;;8.40;;
11761;SDS011;5938;47.098;15.474;2023-06-26T16:24:49;8.80;;;8.20;;
11761;SDS011;5938;47.098;15.474;2023-06-26T16:28:54;7.77;;;7.07;;
11761;SDS011;5938;47.098;15.474;2023-06-26T16:32:57;9.40;;;8.50;;
11761;SDS011;5938;47.098;15.474;2023-06-26T16:37:03;8.83;;;8.17;;
11761;SDS011;5938;47.098;15.474;2023-06-26T16:41:09;9.73;;;8.90;;
11761;SDS011;5938;47.098;15.474;2023-06-26T16:45:15;9.90;;;9.00;;
11761;SDS011;5938;47.098;15.474;2023-06-26T16:49:18;7.60;;;6.97;;
11761;SDS011;5938;47.098;15.474;2023-06-26T16:53:22;9.70;;;8.90;;
11761;SDS011;5938;47.098;15.474;2023-06-26T16:57:26;7.70;;;7.00;;
11761;SDS011;5938;47.098;15.474;2023-06-26T17:01:31;8.30;;;7.60;;
11761;SDS011;5938;47.098;15.474;2023-06-26T17:05:35;8.73;;;7.93;;
11761;SDS011;5938;47.098;15.474;2023-06-26T17:09:41;8.20;;;7.53;;
11761;SDS011;5938;47.098;15.474;2023-06-26T17:13:44;7.30;;;6.80;;
11761;SDS011;5938;47.098;15.474;2023-06-26T17:17:49;7.93;;;7.33;;
11761;SDS011;5938;47.098;15.474;2023-06-26T17:21:53;8.50;;;7.80;;
11761;SDS011;5938;47.098;15.474;2023-06-26T17:25:57;8.13;;;7.37;;
11761;SDS011;5938;47.098;15.474;2023-06-26T17:30:04;9.37;;;8.57;;
11761;SDS011;5938;47.098;15.474;2023-06-26T17:34:11;8.07;;;7.47;;
11761;SDS011;5938;47.098;15.474;2023-06-26T17:38:15;8.80;;;8.00;;
11761;SDS011;5938;47.098;15.474;2023-06-26T17:42:19;9.30;;;8.50;;
11761;SDS011;5938;47.098;15.474;2023-06-26T17:46:23;9.60;;;8.70;;
11761;SDS011;5938;47.098;15.474;2023-06-26T17:50:28;9.17;;;8.30;;
11761;SDS011;5938;47.098;15.474;2023-06-26T17:54:32;9.33;;;8.00;;
11761;SDS011;5938;47.098;15.474;2023-06-26T17:58:36;8.50;;;7.70;;
11761;SDS011;5938;47.098;15.474;2023-06-26T18:02:41;9.27;;;8.40;;
11761;SDS011;5938;47.098;15.474;2023-06-26T18:06:47;8.70;;;7.90;;
11761;SDS011;5938;47.098;15.474;2023-06-26T18:10:51;8.90;;;8.00;;
11761;SDS011;5938;47.098;15.474;2023-06-26T18:14:55;11.60;;;7.63;;
11761;SDS011;5938;47.098;15.474;2023-06-26T18:19:00;8.27;;;7.60;;
11761;SDS011;5938;47.098;15.474;2023-06-26T18:23:06;9.17;;;8.30;;
11761;SDS011;5938;47.098;15.474;2023-06-26T18:27:11;8.53;;;7.70;;
11761;SDS011;5938;47.098;15.474;2023-06-26T18:31:15;8.30;;;7.60;;
11761;SDS011;5938;47.098;15.474;2023-06-26T18:35:19;9.60;;;8.73;;
11761;SDS011;5938;47.098;15.474;2023-06-26T18:39:27;10.40;;;8.00;;
11761;SDS011;5938;47.098;15.474;2023-06-26T18:43:33;8.47;;;7.77;;
11761;SDS011;5938;47.098;15.474;2023-06-26T18:47:37;10.67;;;9.70;;
11761;SDS011;5938;47.098;15.474;2023-06-26T18:51:42;9.37;;;8.57;;
11761;SDS011;5938;47.098;15.474;2023-06-26T18:55:48;9.83;;;8.93;;
11761;SDS011;5938;47.098;15.474;2023-06-26T18:59:53;9.97;;;9.07;;
11761;SDS011;5938;47.098;15.474;2023-06-26T19:04:00;9.27;;;8.37;;
11761;SDS011;5938;47.098;15.474;2023-06-26T19:08:04;10.77;;;9.70;;
11761;SDS011;5938;47.098;15.474;2023-06-26T19:12:11;9.53;;;8.63;;
11761;SDS011;5938;47.098;15.474;2023-06-26T19:16:15;9.70;;;8.70;;
11761;SDS011;5938;47.098;15.474;2023-06-26T19:20:19;9.97;;;9.07;;
11761;SDS011;5938;47.098;15.474;2023-06-26T19:24:23;9.20;;;8.40;;
11761;SDS011;5938;47.098;15.474;2023-06-26T19:28:28;10.50;;;9.60;;
11761;SDS011;5938;47.098;15.474;2023-06-26T19:32:32;10.83;;;9.43;;
11761;SDS011;5938;47.098;15.474;2023-06-26T19:36:37;10.27;;;9.33;;
11761;SDS011;5938;47.098;15.474;2023-06-26T19:40:41;9.80;;;8.80;;
11761;SDS011;5938;47.098;15.474;2023-06-26T19:44:48;10.30;;;9.40;;
11761;SDS011;5938;47.098;15.474;2023-06-26T19:48:52;9.70;;;8.70;;
11761;SDS011;5938;47.098;15.474;2023-06-26T19:52:56;10.10;;;9.10;;
11761;SDS011;5938;47.098;15.474;2023-06-26T19:57:00;10.60;;;9.60;;
11761;SDS011;5938;47.098;15.474;2023-06-26T20:01:08;11.20;;;10.10;;
11761;SDS011;5938;47.098;15.474;2023-06-26T20:05:14;10.57;;;9.53;;
11761;SDS011;5938;47.098;15.474;2023-06-26T20:09:18;10.80;;;9.70;;
11761;SDS011;5938;47.098;15.474;2023-06-26T20:13:27;11.70;;;10.47;;
11761;SDS011;5938;47.098;15.474;2023-06-26T20:17:32;10.93;;;9.90;;
11761;SDS011;5938;47.098;15.474;2023-06-26T20:21:36;11.50;;;10.37;;
11761;SDS011;5938;47.098;15.474;2023-06-26T20:25:40;12.33;;;11.07;;
11761;SDS011;5938;47.098;15.474;2023-06-26T20:29:44;11.50;;;10.40;;
11761;SDS011;5938;47.098;15.474;2023-06-26T20:33:50;11.83;;;10.33;;
11761;SDS011;5938;47.098;15.474;2023-06-26T20:37:55;11.93;;;10.80;;
11761;SDS011;5938;47.098;15.474;2023-06-26T20:42:00;12.93;;;10.40;;
11761;SDS011;5938;47.098;15.474;2023-06-26T20:46:05;11.37;;;10.30;;
11761;SDS011;5938;47.098;15.474;2023-06-26T20:50:11;10.47;;;9.50;;
11761;SDS011;5938;47.098;15.474;2023-06-26T20:54:18;11.83;;;10.70;;
11761;SDS011;5938;47.098;15.474;2023-06-26T20:58:22;11.00;;;9.90;;
11761;SDS011;5938;47.098;15.474;2023-06-26T21:02:25;12.00;;;10.80;;
11761;SDS011;5938;47.098;15.474;2023-06-26T21:06:32;11.93;;;10.93;;
11761;SDS011;5938;47.098;15.474;2023-06-26T21:10:35;11.17;;;10.17;;
11761;SDS011;5938;47.098;15.474;2023-06-26T21:14:39;11.50;;;10.27;;
11761;SDS011;5938;47.098;15.474;2023-06-26T21:18:42;11.37;;;10.37;;
11761;SDS011;5938;47.098;15.474;2023-06-26T21:22:47;11.30;;;10.20;;
11761;SDS011;5938;47.098;15.474;2023-06-26T21:26:51;11.10;;;10.10;;
11761;SDS011;5938;47.098;15.474;2023-06-26T21:30:55;12.03;;;10.93;;
11761;SDS011;5938;47.098;15.474;2023-06-26T21:34:58;12.47;;;11.27;;
11761;SDS011;5938;47.098;15.474;2023-06-26T21:39:04;13.27;;;11.90;;
11761;SDS011;5938;47.098;15.474;2023-06-26T21:43:08;10.37;;;9.33;;
11761;SDS011;5938;47.098;15.474;2023-06-26T21:47:17;13.80;;;10.00;;
11761;SDS011;5938;47.098;15.474;2023-06-26T21:51:21;12.47;;;11.27;;
11761;SDS011;5938;47.098;15.474;2023-06-26T21:55:26;11.37;;;10.37;;
11761;SDS011;5938;47.098;15.474;2023-06-26T21:59:30;12.90;;;11.10;;
11761;SDS011;5938;47.098;15.474;2023-06-26T22:03:33;11.80;;;10.70;;
11761;SDS011;5938;47.098;15.474;2023-06-26T22:07:37;12.43;;;11.23;;
11761;SDS011;5938;47.098;15.474;2023-06-26T22:11:57;10.97;;;9.97;;
11761;SDS011;5938;47.098;15.474;2023-06-26T22:16:01;11.17;;;10.17;;
11761;SDS011;5938;47.098;15.474;2023-06-26T22:20:05;11.07;;;10.10;;
11761;SDS011;5938;47.098;15.474;2023-06-26T22:24:10;12.43;;;11.27;;
11761;SDS011;5938;47.098;15.474;2023-06-26T22:28:17;11.20;;;10.10;;
11761;SDS011;5938;47.098;15.474;2023-06-26T22:32:21;12.60;;;11.30;;
11761;SDS011;5938;47.098;15.474;2023-06-26T22:36:24;11.47;;;10.40;;
11761;SDS011;5938;47.098;15.474;2023-06-26T22:40:28;11.47;;;10.47;;
11761;SDS011;5938;47.098;15.474;2023-06-26T22:44:33;12.40;;;11.20;;
11761;SDS011;5938;47.098;15.474;2023-06-26T22:48:43;11.27;;;10.17;;
11761;SDS011;5938;47.098;15.474;2023-06-26T22:52:46;12.10;;;9.70;;
11761;SDS011;5938;47.098;15.474;2023-06-26T22:56:50;14.20;;;10.07;;
11761;SDS011;5938;47.098;15.474;2023-06-26T23:00:58;11.23;;;10.13;;
11761;SDS011;5938;47.098;15.474;2023-06-26T23:05:02;11.67;;;10.47;;
11761;SDS011;5938;47.098;15.474;2023-06-26T23:09:09;12.03;;;10.83;;
11761;SDS011;5938;47.098;15.474;2023-06-26T23:13:13;11.43;;;10.40;;
11761;SDS011;5938;47.098;15.474;2023-06-26T23:17:18;10.13;;;9.23;;
11761;SDS011;5938;47.098;15.474;2023-06-26T23:21:21;10.63;;;9.63;;
11761;SDS011;5938;47.098;15.474;2023-06-26T23:25:26;11.93;;;10.73;;
11761;SDS011;5938;47.098;15.474;2023-06-26T23:29:35;12.33;;;11.23;;
11761;SDS011;5938;47.098;15.474;2023-06-26T23:33:40;13.40;;;9.90;;
11761;SDS011;5938;47.098;15.474;2023-06-26T23:37:44;10.40;;;9.43;;
11761;SDS011;5938;47.098;15.474;2023-06-26T23:41:55;11.30;;;10.20;;
11761;SDS011;5938;47.098;15.474;2023-06-26T23:45:58;11.80;;;10.60;;
11761;SDS011;5938;47.098;15.474;2023-06-26T23:50:05;11.43;;;10.43;;
11761;SDS011;5938;47.098;15.474;2023-06-26T23:54:09;12.17;;;10.87;;
11761;SDS011;5938;47.098;15.474;2023-06-26T23:58:18;12.10;;;10.97;;
